Time;durP1;ratioP1;P1;durP2;ratioP2;P2;SDS_P1;SDS_P2;PMS_P1;PMS_P2;Temp;Humidity;BMP_temperature;BMP_pressure;BME280_temperature;BME280_humidity;BME280_pressure;Samples;Min_cycle;Max_cycle;Signal;HPM_P1;HPM_P2
2024/01/20 00:00:18;;;;;;;7.38;2.95;;;;;;;;;;5052979;28;20483;-78
2024/01/20 00:02:44;;;;;;;6.88;2.70;;;;;;;;;;5054014;28;20040;-79
2024/01/20 00:05:11;;;;;;;11.60;2.63;;;;;;;;;;5054798;28;20431;-79
2024/01/20 00:07:37;;;;;;;5.85;2.60;;;;;;;;;;5070257;28;20442;-78
2024/01/20 00:10:10;;;;;;;8.73;2.83;;;;;;;;;;5054297;28;20043;-78
2024/01/20 00:12:36;;;;;;;8.38;3.20;;;;;;;;;;5072643;28;20040;-78
2024/01/20 00:15:02;;;;;;;3.63;2.17;;;;;;;;;;5060935;28;20043;-79
2024/01/20 00:17:28;;;;;;;5.55;2.42;;;;;;;;;;5058498;28;20040;-80
2024/01/20 00:19:55;;;;;;;11.85;3.42;;;;;;;;;;5045107;28;20044;-79
2024/01/20 00:22:21;;;;;;;11.98;3.28;;;;;;;;;;5072477;28;20055;-79
2024/01/20 00:24:47;;;;;;;12.85;3.42;;;;;;;;;;5039017;28;20044;-79
2024/01/20 00:27:13;;;;;;;7.78;2.95;;;;;;;;;;5069442;28;20040;-78
2024/01/20 00:29:39;;;;;;;8.73;3.50;;;;;;;;;;5034982;28;20036;-79
2024/01/20 00:32:05;;;;;;;8.57;3.40;;;;;;;;;;5052337;28;20047;-78
2024/01/20 00:34:31;;;;;;;5.70;3.63;;;;;;;;;;5073456;28;20472;-79
2024/01/20 00:37:00;;;;;;;7.53;3.25;;;;;;;;;;5056348;28;20042;-79
2024/01/20 00:39:26;;;;;;;16.77;5.75;;;;;;;;;;5066502;28;20047;-79
2024/01/20 00:41:52;;;;;;;12.50;4.00;;;;;;;;;;5076714;28;20036;-79
2024/01/20 00:44:18;;;;;;;7.25;3.97;;;;;;;;;;5037696;28;20047;-80
2024/01/20 00:46:44;;;;;;;11.00;4.85;;;;;;;;;;5060503;28;20090;-79
2024/01/20 00:49:10;;;;;;;8.55;4.22;;;;;;;;;;5075373;28;20134;-79
2024/01/20 00:51:36;;;;;;;10.55;3.92;;;;;;;;;;5055524;28;20046;-79
2024/01/20 00:54:02;;;;;;;10.77;4.32;;;;;;;;;;5086569;28;20563;-79
2024/01/20 00:56:29;;;;;;;5.82;3.65;;;;;;;;;;5076307;28;20031;-79
2024/01/20 00:58:55;;;;;;;8.43;4.65;;;;;;;;;;5070430;28;20123;-79
2024/01/20 01:01:21;;;;;;;8.18;3.35;;;;;;;;;;5057488;28;20027;-79
2024/01/20 01:03:47;;;;;;;10.80;4.63;;;;;;;;;;5054142;28;20506;-79
2024/01/20 01:06:13;;;;;;;11.63;5.40;;;;;;;;;;5073269;28;20051;-79
2024/01/20 01:08:39;;;;;;;8.75;4.55;;;;;;;;;;5052342;28;20035;-79
2024/01/20 01:11:14;;;;;;;10.88;5.32;;;;;;;;;;5072120;28;20054;-79
2024/01/20 01:13:41;;;;;;;7.97;4.35;;;;;;;;;;5069881;28;20040;-80
2024/01/20 01:16:07;;;;;;;9.88;5.50;;;;;;;;;;5039467;28;20039;-79
2024/01/20 01:18:34;;;;;;;8.20;3.58;;;;;;;;;;5054588;28;20039;-79
2024/01/20 01:21:00;;;;;;;8.13;3.88;;;;;;;;;;5068367;28;20353;-78
2024/01/20 01:23:26;;;;;;;8.18;4.47;;;;;;;;;;5072717;28;20055;-78
2024/01/20 01:25:53;;;;;;;10.52;4.85;;;;;;;;;;5069506;28;20079;-79
2024/01/20 01:28:20;;;;;;;12.60;5.40;;;;;;;;;;5052761;28;20460;-78
2024/01/20 01:30:47;;;;;;;7.90;4.97;;;;;;;;;;5069936;28;20503;-76
2024/01/20 01:33:13;;;;;;;9.30;4.90;;;;;;;;;;5048275;28;20040;-77
2024/01/20 01:35:39;;;;;;;13.57;5.30;;;;;;;;;;5072265;28;20039;-77
2024/01/20 01:38:06;;;;;;;15.07;5.90;;;;;;;;;;5053031;28;20032;-77
2024/01/20 01:40:32;;;;;;;17.10;6.97;;;;;;;;;;5052009;28;20076;-77
2024/01/20 01:42:58;;;;;;;10.02;4.90;;;;;;;;;;5069470;28;20044;-79
2024/01/20 01:45:24;;;;;;;15.07;5.32;;;;;;;;;;5073144;28;20166;-77
2024/01/20 01:47:55;;;;;;;12.27;5.30;;;;;;;;;;5036512;28;20067;-77
2024/01/20 01:50:21;;;;;;;11.45;4.47;;;;;;;;;;5065378;28;20044;-79
2024/01/20 01:52:50;;;;;;;11.68;4.53;;;;;;;;;;5050656;28;20063;-78
2024/01/20 01:55:16;;;;;;;15.88;5.47;;;;;;;;;;5063650;28;20046;-78
2024/01/20 01:57:43;;;;;;;11.88;4.97;;;;;;;;;;5072445;28;20080;-78
2024/01/20 02:00:10;;;;;;;9.02;5.28;;;;;;;;;;5051746;28;20491;-78
2024/01/20 02:02:36;;;;;;;16.10;4.82;;;;;;;;;;5067602;28;20480;-78
2024/01/20 02:05:02;;;;;;;8.52;4.55;;;;;;;;;;5038747;28;20079;-78
2024/01/20 02:07:30;;;;;;;9.00;3.85;;;;;;;;;;5050459;28;20048;-78
2024/01/20 02:09:56;;;;;;;11.90;4.22;;;;;;;;;;5036022;28;20135;-78
2024/01/20 02:12:25;;;;;;;11.45;5.30;;;;;;;;;;5054571;28;20131;-78
2024/01/20 02:14:52;;;;;;;11.30;5.07;;;;;;;;;;5088859;28;20087;-78
2024/01/20 02:17:18;;;;;;;14.25;4.68;;;;;;;;;;5069658;28;20075;-78
2024/01/20 02:19:45;;;;;;;13.57;5.32;;;;;;;;;;5053252;28;20489;-78
2024/01/20 02:22:15;;;;;;;13.50;6.25;;;;;;;;;;5056060;28;20120;-78
2024/01/20 02:24:46;;;;;;;9.60;4.93;;;;;;;;;;5068566;28;20115;-78
2024/01/20 02:27:12;;;;;;;9.48;4.40;;;;;;;;;;5053732;28;20063;-80
2024/01/20 02:29:39;;;;;;;7.20;3.75;;;;;;;;;;5058317;28;20118;-79
2024/01/20 02:32:05;;;;;;;13.68;4.40;;;;;;;;;;5052800;28;20044;-77
2024/01/20 02:34:32;;;;;;;11.73;5.10;;;;;;;;;;5075135;28;20032;-78
2024/01/20 02:36:58;;;;;;;12.68;5.28;;;;;;;;;;5057936;28;20564;-77
2024/01/20 02:39:24;;;;;;;11.82;4.13;;;;;;;;;;5055597;28;20036;-78
2024/01/20 02:41:50;;;;;;;13.25;4.72;;;;;;;;;;5054530;28;20038;-79
2024/01/20 02:44:16;;;;;;;11.98;5.35;;;;;;;;;;5054207;28;20035;-79
2024/01/20 02:46:42;;;;;;;13.65;3.75;;;;;;;;;;5067408;28;20527;-79
2024/01/20 02:49:08;;;;;;;9.27;4.68;;;;;;;;;;5068044;28;20492;-81
2024/01/20 02:51:34;;;;;;;9.35;3.95;;;;;;;;;;5050718;28;20553;-79
2024/01/20 02:54:00;;;;;;;8.25;4.53;;;;;;;;;;5037973;28;20527;-80
2024/01/20 02:56:26;;;;;;;9.52;4.07;;;;;;;;;;5055208;28;20059;-79
2024/01/20 02:58:52;;;;;;;14.32;5.15;;;;;;;;;;5035470;28;20087;-80
2024/01/20 03:01:18;;;;;;;12.55;4.63;;;;;;;;;;5054040;28;20040;-79
2024/01/20 03:03:45;;;;;;;11.40;4.68;;;;;;;;;;5055097;28;20036;-80
2024/01/20 03:06:11;;;;;;;10.73;4.80;;;;;;;;;;5058373;28;20036;-80
2024/01/20 03:08:37;;;;;;;10.15;5.15;;;;;;;;;;5072283;28;20065;-80
2024/01/20 03:11:03;;;;;;;15.15;6.07;;;;;;;;;;5069099;28;20039;-80
2024/01/20 03:13:29;;;;;;;13.68;5.75;;;;;;;;;;5055530;28;20028;-80
2024/01/20 03:15:55;;;;;;;10.43;4.82;;;;;;;;;;5055781;28;20036;-80
2024/01/20 03:18:21;;;;;;;11.32;5.82;;;;;;;;;;5092662;28;20061;-80
2024/01/20 03:20:47;;;;;;;12.25;6.25;;;;;;;;;;5072140;28;20054;-78
2024/01/20 03:23:13;;;;;;;15.27;7.38;;;;;;;;;;5033627;28;20044;-79
2024/01/20 03:25:39;;;;;;;12.15;6.25;;;;;;;;;;5038620;28;20396;-78
2024/01/20 03:28:05;;;;;;;20.48;7.40;;;;;;;;;;5037448;28;20039;-79
2024/01/20 03:30:31;;;;;;;15.20;7.32;;;;;;;;;;5065771;28;20046;-79
2024/01/20 03:32:57;;;;;;;16.30;7.32;;;;;;;;;;5035659;28;20044;-79
2024/01/20 03:35:24;;;;;;;15.18;8.02;;;;;;;;;;5084086;28;20043;-79
2024/01/20 03:37:50;;;;;;;17.48;9.00;;;;;;;;;;5037094;28;20036;-78
2024/01/20 03:40:16;;;;;;;22.70;11.57;;;;;;;;;;5048731;28;20118;-79
2024/01/20 03:42:42;;;;;;;18.02;9.13;;;;;;;;;;5068771;28;20047;-79
2024/01/20 03:45:09;;;;;;;18.52;12.45;;;;;;;;;;5067552;28;20059;-79
2024/01/20 03:47:35;;;;;;;19.45;11.90;;;;;;;;;;5057525;28;20040;-80
2024/01/20 03:50:03;;;;;;;17.45;11.10;;;;;;;;;;5049614;28;21323;-78
2024/01/20 03:52:29;;;;;;;12.57;8.73;;;;;;;;;;5053854;28;20117;-78
2024/01/20 03:54:55;;;;;;;10.68;6.82;;;;;;;;;;5070991;28;20162;-78
2024/01/20 03:57:21;;;;;;;22.77;10.88;;;;;;;;;;5067673;28;20047;-78
2024/01/20 03:59:47;;;;;;;21.80;13.20;;;;;;;;;;5066557;28;20048;-80
2024/01/20 04:02:13;;;;;;;22.13;13.45;;;;;;;;;;5051200;28;20422;-78
2024/01/20 04:04:39;;;;;;;14.85;11.43;;;;;;;;;;5051601;28;20032;-79
2024/01/20 04:07:10;;;;;;;25.42;11.65;;;;;;;;;;5086535;28;20043;-78
2024/01/20 04:09:36;;;;;;;10.60;8.73;;;;;;;;;;5053321;28;20048;-78
2024/01/20 04:12:05;;;;;;;20.75;12.48;;;;;;;;;;5052097;28;20119;-79
2024/01/20 04:14:31;;;;;;;21.80;13.13;;;;;;;;;;5078427;28;20139;-77
2024/01/20 04:16:57;;;;;;;19.48;13.25;;;;;;;;;;5032389;28;20035;-79
2024/01/20 04:19:23;;;;;;;21.88;15.40;;;;;;;;;;5038965;28;20155;-78
2024/01/20 04:21:49;;;;;;;21.88;13.57;;;;;;;;;;5037490;28;20056;-78
2024/01/20 04:24:15;;;;;;;22.13;13.25;;;;;;;;;;5051130;28;20037;-79
2024/01/20 04:26:41;;;;;;;30.13;17.30;;;;;;;;;;5034017;28;20117;-78
2024/01/20 04:29:08;;;;;;;25.75;15.25;;;;;;;;;;5068368;28;20079;-78
2024/01/20 04:31:34;;;;;;;19.20;13.70;;;;;;;;;;5057729;28;20040;-78
2024/01/20 04:34:00;;;;;;;27.88;14.55;;;;;;;;;;5069997;28;20144;-78
2024/01/20 04:36:26;;;;;;;22.30;13.10;;;;;;;;;;5050022;28;20048;-79
2024/01/20 04:38:52;;;;;;;23.50;16.92;;;;;;;;;;5067299;28;20511;-78
2024/01/20 04:41:18;;;;;;;18.63;12.80;;;;;;;;;;5068898;28;20040;-78
2024/01/20 04:43:44;;;;;;;24.23;15.63;;;;;;;;;;5069825;28;20028;-78
2024/01/20 04:46:10;;;;;;;28.08;17.35;;;;;;;;;;5040302;28;20109;-78
2024/01/20 04:48:37;;;;;;;26.02;16.25;;;;;;;;;;5045754;28;20064;-78
2024/01/20 04:51:04;;;;;;;19.10;13.18;;;;;;;;;;5070555;28;20039;-77
2024/01/20 04:53:30;;;;;;;22.38;16.15;;;;;;;;;;5063940;28;20028;-78
2024/01/20 04:55:56;;;;;;;21.80;15.65;;;;;;;;;;5039330;28;20399;-79
2024/01/20 04:58:22;;;;;;;21.73;15.75;;;;;;;;;;5042593;28;20140;-79
2024/01/20 05:00:48;;;;;;;22.48;12.70;;;;;;;;;;5043456;28;20094;-84
2024/01/20 05:03:14;;;;;;;26.35;16.70;;;;;;;;;;5055970;28;20115;-83
2024/01/20 05:05:40;;;;;;;24.38;14.70;;;;;;;;;;5056410;28;20040;-82
2024/01/20 05:08:06;;;;;;;32.50;19.17;;;;;;;;;;5053479;28;20047;-82
2024/01/20 05:10:33;;;;;;;26.40;14.48;;;;;;;;;;5059074;28;20066;-83
2024/01/20 05:12:59;;;;;;;31.45;17.23;;;;;;;;;;5058901;28;20066;-82
2024/01/20 05:15:25;;;;;;;33.53;19.40;;;;;;;;;;5075296;28;20131;-82
2024/01/20 05:17:51;;;;;;;23.40;15.50;;;;;;;;;;5075513;28;20035;-83
2024/01/20 05:20:18;;;;;;;21.77;14.68;;;;;;;;;;5055684;28;20051;-81
2024/01/20 05:22:44;;;;;;;26.60;15.70;;;;;;;;;;5041756;28;20083;-82
2024/01/20 05:25:10;;;;;;;32.90;19.38;;;;;;;;;;5074420;28;20124;-81
2024/01/20 05:27:36;;;;;;;22.65;16.42;;;;;;;;;;5053617;28;20057;-83
2024/01/20 05:30:02;;;;;;;25.15;17.20;;;;;;;;;;5071986;28;20059;-83
2024/01/20 05:32:28;;;;;;;21.50;14.60;;;;;;;;;;5056031;28;20044;-82
2024/01/20 05:34:54;;;;;;;25.67;18.45;;;;;;;;;;5076221;28;20502;-80
2024/01/20 05:37:20;;;;;;;24.90;15.77;;;;;;;;;;5038285;28;20044;-83
2024/01/20 05:39:46;;;;;;;29.80;18.00;;;;;;;;;;5053757;28;20043;-81
2024/01/20 05:42:14;;;;;;;27.88;20.02;;;;;;;;;;5057055;28;20162;-82
2024/01/20 05:44:40;;;;;;;23.45;16.90;;;;;;;;;;5070735;28;20048;-81
2024/01/20 05:47:06;;;;;;;25.33;16.02;;;;;;;;;;5054177;28;20028;-80
2024/01/20 05:49:32;;;;;;;23.00;14.82;;;;;;;;;;5036058;28;20511;-83
2024/01/20 05:51:58;;;;;;;26.17;18.73;;;;;;;;;;5073036;28;20495;-82
2024/01/20 05:54:25;;;;;;;28.73;19.92;;;;;;;;;;5054065;28;20044;-81
2024/01/20 05:56:51;;;;;;;30.45;18.33;;;;;;;;;;5071314;28;20040;-82
2024/01/20 05:59:17;;;;;;;37.05;18.80;;;;;;;;;;5069241;28;20109;-82
2024/01/20 06:01:50;;;;;;;26.65;17.25;;;;;;;;;;5071447;28;20032;-82
2024/01/20 06:04:17;;;;;;;34.47;20.20;;;;;;;;;;5053999;28;20036;-81
2024/01/20 06:06:44;;;;;;;28.27;16.10;;;;;;;;;;5048098;28;20478;-82
2024/01/20 06:09:10;;;;;;;35.38;24.30;;;;;;;;;;5051171;28;20040;-81
2024/01/20 06:11:36;;;;;;;30.48;18.38;;;;;;;;;;5033013;28;20036;-79
2024/01/20 06:14:02;;;;;;;36.38;24.80;;;;;;;;;;5055505;28;20085;-78
2024/01/20 06:16:28;;;;;;;37.75;24.95;;;;;;;;;;5052911;28;20407;-79
2024/01/20 06:18:54;;;;;;;40.83;24.30;;;;;;;;;;5034740;28;20466;-79
2024/01/20 06:21:24;;;;;;;37.03;25.50;;;;;;;;;;5055202;28;20047;-78
2024/01/20 06:23:51;;;;;;;32.53;20.58;;;;;;;;;;5072761;28;20082;-79
2024/01/20 06:26:18;;;;;;;35.65;22.33;;;;;;;;;;5055189;28;20043;-79
2024/01/20 06:28:44;;;;;;;38.90;21.15;;;;;;;;;;5056093;28;20039;-78
2024/01/20 06:31:10;;;;;;;36.92;19.50;;;;;;;;;;5072861;28;20388;-79
2024/01/20 06:33:37;;;;;;;43.15;24.92;;;;;;;;;;5089064;28;20039;-79
2024/01/20 06:36:03;;;;;;;33.63;21.50;;;;;;;;;;5055316;28;20086;-77
2024/01/20 06:38:29;;;;;;;21.10;14.10;;;;;;;;;;5054071;28;20056;-77
2024/01/20 06:40:55;;;;;;;29.05;18.27;;;;;;;;;;5054721;28;20078;-77
2024/01/20 06:43:21;;;;;;;36.78;21.55;;;;;;;;;;5054007;28;20575;-77
2024/01/20 06:45:48;;;;;;;33.65;18.38;;;;;;;;;;5070818;28;20619;-77
2024/01/20 06:48:14;;;;;;;36.78;22.58;;;;;;;;;;5041426;28;20376;-78
2024/01/20 06:50:43;;;;;;;40.63;23.50;;;;;;;;;;5053399;28;20043;-78
2024/01/20 06:53:13;;;;;;;34.67;21.85;;;;;;;;;;5032495;28;20044;-77
2024/01/20 06:55:39;;;;;;;40.33;24.05;;;;;;;;;;5058317;28;20039;-78
2024/01/20 06:58:05;;;;;;;35.03;20.33;;;;;;;;;;5042831;28;20623;-79
2024/01/20 07:00:31;;;;;;;40.58;23.25;;;;;;;;;;5068659;28;20085;-78
2024/01/20 07:02:58;;;;;;;41.75;25.88;;;;;;;;;;5055007;28;20085;-80
2024/01/20 07:05:24;;;;;;;33.88;19.88;;;;;;;;;;5070809;28;20039;-78
2024/01/20 07:07:50;;;;;;;44.30;26.65;;;;;;;;;;5069161;28;20084;-77
2024/01/20 07:10:16;;;;;;;36.00;22.00;;;;;;;;;;5071254;28;20047;-78
2024/01/20 07:12:43;;;;;;;44.58;25.88;;;;;;;;;;5043286;28;20916;-79
2024/01/20 07:15:09;;;;;;;41.53;23.15;;;;;;;;;;5052440;28;20036;-78
2024/01/20 07:17:35;;;;;;;43.08;25.88;;;;;;;;;;5068912;28;20047;-79
2024/01/20 07:20:01;;;;;;;43.33;25.38;;;;;;;;;;5074462;28;20178;-78
2024/01/20 07:22:27;;;;;;;42.40;25.55;;;;;;;;;;5051061;28;20051;-79
2024/01/20 07:24:54;;;;;;;43.20;23.65;;;;;;;;;;5067222;28;20460;-80
2024/01/20 07:27:20;;;;;;;40.83;20.40;;;;;;;;;;5046591;28;20040;-79
2024/01/20 07:29:46;;;;;;;44.08;26.50;;;;;;;;;;5071719;28;20082;-79
2024/01/20 07:32:12;;;;;;;43.75;24.52;;;;;;;;;;5068450;28;20051;-78
2024/01/20 07:34:38;;;;;;;44.90;25.20;;;;;;;;;;5032470;28;20048;-79
2024/01/20 07:37:04;;;;;;;50.55;27.42;;;;;;;;;;5034394;28;20039;-79
2024/01/20 07:39:30;;;;;;;51.10;27.50;;;;;;;;;;5054974;28;20499;-79
2024/01/20 07:41:56;;;;;;;43.08;24.95;;;;;;;;;;5067353;28;20059;-78
2024/01/20 07:44:23;;;;;;;38.10;22.80;;;;;;;;;;5070342;28;20040;-79
2024/01/20 07:46:49;;;;;;;45.58;23.42;;;;;;;;;;5050726;28;20473;-79
2024/01/20 07:49:15;;;;;;;49.75;26.02;;;;;;;;;;5042467;28;20044;-79
2024/01/20 07:51:41;;;;;;;36.88;19.60;;;;;;;;;;5035417;28;20205;-79
2024/01/20 07:54:09;;;;;;;48.65;24.85;;;;;;;;;;5067316;28;20036;-79
2024/01/20 07:56:35;;;;;;;45.17;24.98;;;;;;;;;;5070066;28;20479;-78
2024/01/20 07:59:01;;;;;;;34.55;16.98;;;;;;;;;;5069179;28;20045;-78
2024/01/20 08:01:27;;;;;;;42.67;23.27;;;;;;;;;;5052684;28;20049;-78
2024/01/20 08:03:53;;;;;;;49.45;27.55;;;;;;;;;;5060570;28;20122;-77
2024/01/20 08:06:19;;;;;;;42.95;23.05;;;;;;;;;;5050426;28;20032;-78
2024/01/20 08:08:46;;;;;;;38.15;17.88;;;;;;;;;;5066861;28;20405;-78
2024/01/20 08:11:15;;;;;;;41.92;21.75;;;;;;;;;;5070571;28;20148;-79
2024/01/20 08:13:41;;;;;;;43.97;23.98;;;;;;;;;;5051898;28;20032;-79
2024/01/20 08:16:07;;;;;;;34.92;19.13;;;;;;;;;;5077611;28;20094;-79
2024/01/20 08:18:33;;;;;;;46.75;24.55;;;;;;;;;;5052085;28;20032;-79
2024/01/20 08:20:59;;;;;;;46.38;22.13;;;;;;;;;;5027364;28;20056;-79
2024/01/20 08:23:25;;;;;;;42.42;23.30;;;;;;;;;;5047112;28;20044;-80
2024/01/20 08:25:51;;;;;;;40.17;23.63;;;;;;;;;;5029821;28;20395;-78
2024/01/20 08:28:17;;;;;;;47.50;24.67;;;;;;;;;;5048611;28;20048;-76
2024/01/20 08:30:44;;;;;;;41.72;23.75;;;;;;;;;;5062774;28;20127;-78
2024/01/20 08:33:10;;;;;;;47.58;26.17;;;;;;;;;;5077236;28;20193;-82
2024/01/20 08:35:36;;;;;;;48.05;24.88;;;;;;;;;;5079508;28;20509;-83
2024/01/20 08:38:02;;;;;;;41.60;18.98;;;;;;;;;;5056869;28;20038;-82
2024/01/20 08:40:28;;;;;;;32.75;18.25;;;;;;;;;;5059923;28;20068;-82
2024/01/20 08:42:54;;;;;;;36.45;18.05;;;;;;;;;;5053333;28;20036;-79
2024/01/20 08:45:20;;;;;;;45.55;22.85;;;;;;;;;;5053931;28;20487;-81
2024/01/20 08:47:46;;;;;;;35.47;19.25;;;;;;;;;;5072911;28;20127;-80
2024/01/20 08:50:12;;;;;;;41.45;22.33;;;;;;;;;;5072162;28;20519;-84
2024/01/20 08:52:39;;;;;;;44.88;23.35;;;;;;;;;;5076819;28;20052;-83
2024/01/20 08:55:05;;;;;;;45.70;24.33;;;;;;;;;;5065134;28;20040;-81
2024/01/20 08:57:33;;;;;;;33.40;20.42;;;;;;;;;;5082223;28;20075;-83
2024/01/20 08:59:59;;;;;;;42.33;23.15;;;;;;;;;;5040721;28;20032;-83
2024/01/20 09:02:25;;;;;;;42.05;24.70;;;;;;;;;;5048102;28;20036;-81
2024/01/20 09:04:51;;;;;;;35.75;20.60;;;;;;;;;;5045244;28;20442;-83
2024/01/20 09:07:17;;;;;;;38.47;19.92;;;;;;;;;;5058085;28;20032;-81
2024/01/20 09:09:43;;;;;;;38.40;20.52;;;;;;;;;;5057116;28;20043;-82
2024/01/20 09:12:10;;;;;;;35.55;18.10;;;;;;;;;;5074177;28;20091;-81
2024/01/20 09:14:36;;;;;;;42.75;26.75;;;;;;;;;;5037676;28;20043;-81
2024/01/20 09:17:03;;;;;;;44.65;21.27;;;;;;;;;;5052941;28;20437;-81
2024/01/20 09:19:29;;;;;;;47.08;25.13;;;;;;;;;;5054265;28;20032;-80
2024/01/20 09:21:55;;;;;;;38.80;20.98;;;;;;;;;;5053980;28;20050;-80
2024/01/20 09:24:21;;;;;;;41.85;21.92;;;;;;;;;;5044315;28;20044;-80
2024/01/20 09:26:47;;;;;;;36.80;20.63;;;;;;;;;;5092475;28;20046;-80
2024/01/20 09:29:13;;;;;;;36.47;18.92;;;;;;;;;;5065259;28;20044;-81
2024/01/20 09:31:39;;;;;;;43.95;22.83;;;;;;;;;;5040656;28;20067;-78
2024/01/20 09:34:06;;;;;;;42.65;23.92;;;;;;;;;;5048049;28;20098;-84
2024/01/20 09:36:32;;;;;;;35.88;20.10;;;;;;;;;;5045551;28;20098;-82
2024/01/20 09:38:58;;;;;;;37.58;19.90;;;;;;;;;;5059730;28;20560;-81
2024/01/20 09:41:28;;;;;;;41.55;21.85;;;;;;;;;;5078195;28;20092;-88
2024/01/20 09:43:54;;;;;;;35.63;21.92;;;;;;;;;;5062933;28;20123;-86
2024/01/20 09:46:20;;;;;;;33.38;16.45;;;;;;;;;;5055812;28;20123;-87
2024/01/20 09:48:50;;;;;;;32.22;17.30;;;;;;;;;;5058104;28;20395;-87
2024/01/20 09:51:24;;;;;;;28.42;16.80;;;;;;;;;;5058198;28;20120;-87
2024/01/20 09:53:54;;;;;;;35.05;19.83;;;;;;;;;;5061046;28;20036;-87
2024/01/20 09:56:21;;;;;;;40.53;20.08;;;;;;;;;;5070564;28;20040;-88
2024/01/20 09:58:48;;;;;;;41.85;21.38;;;;;;;;;;5032092;28;20059;-87
2024/01/20 10:01:15;;;;;;;35.88;17.77;;;;;;;;;;5077202;28;20036;-88
2024/01/20 10:03:42;;;;;;;39.13;20.00;;;;;;;;;;5038436;28;20395;-86
2024/01/20 10:06:09;;;;;;;37.58;19.25;;;;;;;;;;5054530;28;20802;-87
2024/01/20 10:08:35;;;;;;;38.90;20.48;;;;;;;;;;5058437;28;20395;-87
2024/01/20 10:11:04;;;;;;;30.38;17.95;;;;;;;;;;5061514;28;20039;-86
2024/01/20 10:13:30;;;;;;;33.60;17.15;;;;;;;;;;5039722;28;20483;-86
2024/01/20 10:15:57;;;;;;;36.72;19.02;;;;;;;;;;5057183;28;20066;-87
2024/01/20 10:18:23;;;;;;;32.90;18.65;;;;;;;;;;5058186;28;20040;-87
2024/01/20 10:20:49;;;;;;;24.58;14.27;;;;;;;;;;5054594;28;20064;-75
2024/01/20 10:23:15;;;;;;;32.70;18.48;;;;;;;;;;5067384;28;20043;-77
2024/01/20 10:25:43;;;;;;;41.28;19.48;;;;;;;;;;5053897;28;20036;-78
2024/01/20 10:28:09;;;;;;;37.13;19.17;;;;;;;;;;5071575;28;20058;-78
2024/01/20 10:30:37;;;;;;;30.50;15.82;;;;;;;;;;5037506;28;20040;-78
2024/01/20 10:33:04;;;;;;;29.08;17.17;;;;;;;;;;5077080;28;20036;-79
2024/01/20 10:35:30;;;;;;;28.52;16.23;;;;;;;;;;5038983;28;20040;-77
2024/01/20 10:38:00;;;;;;;35.20;17.90;;;;;;;;;;5088200;28;20047;-77
2024/01/20 10:40:26;;;;;;;38.08;20.38;;;;;;;;;;5054668;28;20093;-74
2024/01/20 10:42:56;;;;;;;38.45;22.08;;;;;;;;;;5067426;28;20086;-79
2024/01/20 10:45:23;;;;;;;29.10;17.33;;;;;;;;;;5073853;28;20074;-78
2024/01/20 10:47:58;;;;;;;31.42;15.98;;;;;;;;;;5069696;28;20416;-77
2024/01/20 10:50:25;;;;;;;33.63;18.50;;;;;;;;;;5051938;28;20039;-78
2024/01/20 10:52:52;;;;;;;37.65;18.80;;;;;;;;;;5070833;28;20036;-73
2024/01/20 10:55:18;;;;;;;36.88;17.58;;;;;;;;;;5043391;28;20499;-72
2024/01/20 10:57:45;;;;;;;33.15;16.60;;;;;;;;;;5068248;28;20103;-73
2024/01/20 11:00:11;;;;;;;32.17;15.63;;;;;;;;;;5053473;28;20491;-74
2024/01/20 11:02:38;;;;;;;30.67;18.10;;;;;;;;;;5034000;28;20139;-73
2024/01/20 11:05:17;;;;;;;26.90;15.57;;;;;;;;;;5055133;28;20072;-73
2024/01/20 11:07:43;;;;;;;30.73;16.17;;;;;;;;;;5071064;28;20491;-73
2024/01/20 11:10:09;;;;;;;30.38;17.55;;;;;;;;;;5071185;28;20054;-73
2024/01/20 11:12:35;;;;;;;23.88;13.45;;;;;;;;;;5050241;28;20044;-73
2024/01/20 11:15:01;;;;;;;32.92;18.52;;;;;;;;;;5066795;28;20064;-74
2024/01/20 11:17:28;;;;;;;33.63;17.08;;;;;;;;;;5068306;28;20075;-73
2024/01/20 11:19:54;;;;;;;41.28;21.92;;;;;;;;;;5051637;28;20032;-73
2024/01/20 11:22:29;;;;;;;30.02;16.50;;;;;;;;;;5069465;28;20052;-73
2024/01/20 11:24:56;;;;;;;34.50;18.55;;;;;;;;;;5040398;28;20040;-73
2024/01/20 11:27:22;;;;;;;30.10;15.70;;;;;;;;;;5051757;28;20047;-75
2024/01/20 11:29:48;;;;;;;34.78;18.45;;;;;;;;;;5057037;28;20518;-74
2024/01/20 11:32:14;;;;;;;39.33;18.95;;;;;;;;;;5061722;28;20044;-73
2024/01/20 11:34:41;;;;;;;31.38;18.75;;;;;;;;;;5057236;28;20036;-74
2024/01/20 11:37:08;;;;;;;31.90;17.15;;;;;;;;;;5050074;28;20032;-74
2024/01/20 11:39:34;;;;;;;28.15;16.05;;;;;;;;;;5068960;28;20093;-74
2024/01/20 11:42:07;;;;;;;31.02;17.58;;;;;;;;;;5067845;28;20032;-75
2024/01/20 11:44:33;;;;;;;31.45;16.88;;;;;;;;;;5047826;28;20100;-75
2024/01/20 11:46:59;;;;;;;37.63;21.05;;;;;;;;;;5053282;28;20069;-73
2024/01/20 11:49:26;;;;;;;36.15;18.75;;;;;;;;;;5053809;28;20046;-73
2024/01/20 11:51:52;;;;;;;36.97;20.77;;;;;;;;;;5071059;28;20086;-73
2024/01/20 11:54:18;;;;;;;30.13;16.23;;;;;;;;;;5066731;28;20135;-74
2024/01/20 11:56:45;;;;;;;37.03;18.67;;;;;;;;;;5048517;28;20093;-73
2024/01/20 11:59:13;;;;;;;32.58;17.33;;;;;;;;;;5053507;28;20036;-73
2024/01/20 12:01:39;;;;;;;42.92;18.70;;;;;;;;;;5041675;28;20082;-74
2024/01/20 12:04:05;;;;;;;30.35;16.85;;;;;;;;;;5037718;28;20036;-79
2024/01/20 12:06:31;;;;;;;25.60;13.77;;;;;;;;;;5070260;28;20098;-80
2024/01/20 12:08:58;;;;;;;35.38;19.50;;;;;;;;;;5045512;28;20032;-82
2024/01/20 12:11:24;;;;;;;31.25;17.20;;;;;;;;;;5054819;28;20036;-79
2024/01/20 12:13:50;;;;;;;39.00;21.60;;;;;;;;;;5055547;28;20089;-78
2024/01/20 12:16:17;;;;;;;38.63;19.67;;;;;;;;;;5081098;28;20057;-80
2024/01/20 12:18:43;;;;;;;40.85;21.30;;;;;;;;;;5075601;28;20040;-81
2024/01/20 12:21:09;;;;;;;33.15;19.02;;;;;;;;;;5089218;28;20044;-80
2024/01/20 12:23:35;;;;;;;38.97;20.77;;;;;;;;;;5081169;28;20415;-77
2024/01/20 12:26:02;;;;;;;33.70;19.40;;;;;;;;;;5062858;28;20453;-80
2024/01/20 12:28:28;;;;;;;30.65;15.48;;;;;;;;;;5074535;28;20036;-80
2024/01/20 12:30:54;;;;;;;36.13;19.25;;;;;;;;;;5049060;28;20130;-80
2024/01/20 12:33:20;;;;;;;33.17;18.05;;;;;;;;;;5064096;28;20043;-80
2024/01/20 12:35:46;;;;;;;35.15;19.85;;;;;;;;;;5071304;28;20092;-80
2024/01/20 12:38:12;;;;;;;39.45;22.50;;;;;;;;;;5063477;28;20048;-76
2024/01/20 12:40:38;;;;;;;35.70;19.98;;;;;;;;;;5072976;28;20499;-80
2024/01/20 12:43:04;;;;;;;38.88;23.00;;;;;;;;;;5067808;28;20598;-80
2024/01/20 12:45:30;;;;;;;38.15;21.58;;;;;;;;;;5059805;28;20376;-80
2024/01/20 12:47:57;;;;;;;44.00;24.27;;;;;;;;;;5054877;28;20028;-80
2024/01/20 12:50:23;;;;;;;42.72;23.88;;;;;;;;;;5059191;28;20052;-80
2024/01/20 12:52:49;;;;;;;46.33;22.83;;;;;;;;;;5073239;28;20077;-80
2024/01/20 12:55:15;;;;;;;38.33;22.52;;;;;;;;;;5064628;28;20043;-80
2024/01/20 12:57:42;;;;;;;40.35;21.95;;;;;;;;;;5083482;28;20047;-79
2024/01/20 13:00:09;;;;;;;44.40;24.88;;;;;;;;;;5047632;28;20297;-79
2024/01/20 13:02:36;;;;;;;33.58;19.50;;;;;;;;;;5076527;28;20043;-80
2024/01/20 13:05:02;;;;;;;42.95;22.38;;;;;;;;;;5051438;28;20039;-80
2024/01/20 13:07:28;;;;;;;34.80;20.70;;;;;;;;;;5052159;28;20085;-79
2024/01/20 13:09:54;;;;;;;42.28;23.38;;;;;;;;;;5079926;28;20041;-79
2024/01/20 13:12:20;;;;;;;37.70;22.90;;;;;;;;;;5061848;28;20469;-80
2024/01/20 13:14:46;;;;;;;42.55;23.75;;;;;;;;;;5079424;28;20040;-79
2024/01/20 13:17:13;;;;;;;40.13;21.30;;;;;;;;;;5079838;28;20044;-76
2024/01/20 13:19:39;;;;;;;39.10;19.10;;;;;;;;;;5038564;28;20089;-79
2024/01/20 13:22:05;;;;;;;40.70;21.95;;;;;;;;;;5070588;28;20404;-80
2024/01/20 13:24:31;;;;;;;41.28;22.75;;;;;;;;;;5077651;28;20064;-79
2024/01/20 13:26:57;;;;;;;41.95;20.15;;;;;;;;;;5056875;28;20032;-80
2024/01/20 13:29:23;;;;;;;37.10;21.20;;;;;;;;;;5076431;28;20040;-80
2024/01/20 13:31:49;;;;;;;38.58;17.95;;;;;;;;;;5072922;28;20050;-77
2024/01/20 13:34:15;;;;;;;40.10;23.25;;;;;;;;;;5059920;28;20119;-80
2024/01/20 13:36:41;;;;;;;33.00;19.98;;;;;;;;;;5073822;28;20051;-80
2024/01/20 13:39:08;;;;;;;34.25;21.95;;;;;;;;;;5057227;28;20110;-80
2024/01/20 13:41:34;;;;;;;27.13;16.83;;;;;;;;;;5073409;28;20036;-79
2024/01/20 13:44:00;;;;;;;34.13;19.80;;;;;;;;;;5060237;28;20040;-76
2024/01/20 13:46:26;;;;;;;34.70;21.55;;;;;;;;;;5054083;28;20127;-80
2024/01/20 13:48:52;;;;;;;32.65;18.25;;;;;;;;;;5062807;28;20033;-80
2024/01/20 13:51:19;;;;;;;27.80;16.85;;;;;;;;;;5088263;28;20495;-80
2024/01/20 13:53:45;;;;;;;35.35;19.88;;;;;;;;;;5061109;28;20046;-80
2024/01/20 13:56:11;;;;;;;25.20;14.82;;;;;;;;;;5078251;28;20043;-78
2024/01/20 13:58:37;;;;;;;26.67;13.50;;;;;;;;;;5065230;28;20035;-81
2024/01/20 14:01:04;;;;;;;33.83;17.77;;;;;;;;;;5060585;28;20113;-80
2024/01/20 14:03:31;;;;;;;27.73;14.60;;;;;;;;;;5068611;28;20044;-80
2024/01/20 14:05:57;;;;;;;29.27;17.58;;;;;;;;;;5071354;28;20076;-77
2024/01/20 14:08:23;;;;;;;28.20;17.13;;;;;;;;;;5069068;28;20035;-79
2024/01/20 14:10:50;;;;;;;28.00;14.55;;;;;;;;;;5052798;28;20118;-79
2024/01/20 14:13:16;;;;;;;26.35;14.65;;;;;;;;;;5055293;28;20146;-79
2024/01/20 14:15:43;;;;;;;32.33;17.88;;;;;;;;;;5053522;28;20043;-78